createdAt,value
2019-03-12T00:01:13.973Z,1.93
2019-03-12T00:03:43.268Z,2.10
2019-03-12T00:06:12.600Z,3.00
2019-03-12T00:08:41.980Z,3.13
2019-03-12T00:11:11.327Z,2.40
2019-03-12T00:13:40.600Z,3.20
2019-03-12T00:16:09.867Z,2.60
2019-03-12T00:18:39.138Z,3.03
2019-03-12T00:21:08.469Z,3.23
2019-03-12T00:23:37.764Z,3.10
2019-03-12T00:26:07.116Z,3.43
2019-03-12T00:28:36.388Z,4.20
2019-03-12T00:31:05.796Z,3.97
2019-03-12T00:33:35.077Z,3.57
2019-03-12T00:36:04.353Z,4.97
2019-03-12T00:38:33.749Z,3.70
2019-03-12T00:41:03.139Z,3.90
2019-03-12T00:43:32.800Z,4.13
2019-03-12T00:46:02.186Z,3.80
2019-03-12T00:48:31.454Z,3.33
2019-03-12T00:51:00.802Z,3.93
2019-03-12T00:53:30.081Z,4.67
2019-03-12T00:55:59.473Z,3.67
2019-03-12T00:58:28.847Z,3.93
2019-03-12T01:00:58.456Z,4.00
2019-03-12T01:03:27.742Z,4.43
2019-03-12T01:05:57.074Z,3.30
2019-03-12T01:08:26.574Z,3.53
2019-03-12T01:10:55.856Z,3.13
2019-03-12T01:13:25.181Z,3.67
2019-03-12T01:15:54.506Z,3.30
2019-03-12T01:18:23.818Z,3.40
2019-03-12T01:20:53.184Z,4.00
2019-03-12T01:23:22.474Z,4.00
2019-03-12T01:25:51.743Z,3.63
2019-03-12T01:28:21.047Z,4.23
2019-03-12T01:30:50.631Z,3.60
2019-03-12T01:33:19.997Z,4.77
2019-03-12T01:35:49.295Z,4.10
2019-03-12T01:38:18.538Z,5.00
2019-03-12T01:40:47.871Z,4.17
2019-03-12T01:43:17.178Z,3.00
2019-03-12T01:45:46.484Z,3.40
2019-03-12T01:48:15.872Z,3.30
2019-03-12T01:50:45.204Z,3.07
2019-03-12T01:53:14.565Z,3.70
2019-03-12T01:55:43.901Z,3.40
2019-03-12T01:58:14.751Z,3.50
2019-03-12T02:00:44.685Z,3.53
2019-03-12T02:03:14.165Z,4.00
2019-03-12T02:05:43.418Z,3.43
2019-03-12T02:08:12.765Z,5.53
2019-03-12T02:10:42.540Z,3.90
2019-03-12T02:13:11.899Z,4.30
2019-03-12T02:15:41.196Z,2.80
2019-03-12T02:18:10.523Z,2.83
2019-03-12T02:20:39.869Z,3.60
2019-03-12T02:23:09.555Z,5.30
2019-03-12T02:25:40.401Z,3.50
2019-03-12T02:28:09.697Z,2.83
2019-03-12T02:30:39.018Z,2.90
2019-03-12T02:33:08.354Z,4.57
2019-03-12T02:35:37.827Z,3.60
2019-03-12T02:38:07.185Z,4.07
2019-03-12T02:40:36.544Z,3.73
2019-03-12T02:43:06.223Z,3.70
2019-03-12T02:45:35.592Z,3.20
2019-03-12T02:48:04.905Z,3.50
2019-03-12T02:50:34.205Z,4.77
2019-03-12T02:53:03.575Z,4.33
2019-03-12T02:55:32.890Z,4.27
2019-03-12T02:58:02.242Z,4.10
2019-03-12T03:00:31.543Z,3.57
2019-03-12T03:03:01.288Z,3.47
2019-03-12T03:05:32.399Z,3.53
2019-03-12T03:08:04.860Z,3.10
2019-03-12T03:10:34.718Z,4.00
2019-03-12T03:13:04.035Z,3.50
2019-03-12T03:15:42.289Z,3.67
2019-03-12T03:18:12.316Z,2.80
2019-03-12T03:20:41.676Z,4.50
2019-03-12T03:23:10.990Z,3.53
2019-03-12T03:25:40.357Z,3.90
2019-03-12T03:28:09.727Z,3.20
2019-03-12T03:30:39.147Z,4.40
2019-03-12T03:33:08.517Z,3.10
2019-03-12T03:35:37.872Z,3.37
2019-03-12T03:38:07.184Z,3.43
2019-03-12T03:40:36.458Z,3.53
2019-03-12T03:43:05.761Z,3.10
2019-03-12T03:45:35.048Z,3.13
2019-03-12T03:48:04.556Z,4.07
2019-03-12T03:50:33.849Z,3.40
2019-03-12T03:53:03.170Z,3.77
2019-03-12T03:55:32.473Z,2.80
2019-03-12T03:58:01.977Z,4.10
2019-03-12T04:00:31.424Z,3.30
2019-03-12T04:03:00.820Z,4.00
2019-03-12T04:05:30.152Z,6.20
2019-03-12T04:07:59.934Z,3.53
2019-03-12T04:10:29.650Z,5.23
2019-03-12T04:12:58.953Z,2.90
2019-03-12T04:15:28.282Z,3.43
2019-03-12T04:17:57.620Z,6.10
2019-03-12T04:20:26.891Z,3.80
2019-03-12T04:22:56.185Z,3.00
2019-03-12T04:25:25.827Z,3.07
2019-03-12T04:27:55.128Z,3.17
2019-03-12T04:30:24.455Z,2.93
2019-03-12T04:32:53.754Z,4.63
2019-03-12T04:35:23.731Z,3.80
2019-03-12T04:37:53.086Z,2.73
2019-03-12T04:40:22.372Z,3.03
2019-03-12T04:42:51.668Z,2.83
2019-03-12T04:45:20.972Z,2.83
2019-03-12T04:47:50.268Z,3.33
2019-03-12T04:50:19.548Z,3.40
2019-03-12T04:52:48.938Z,3.00
2019-03-12T04:55:18.264Z,3.60
2019-03-12T04:57:47.545Z,3.83
2019-03-12T05:00:17.287Z,3.13
2019-03-12T05:02:47.138Z,3.90
2019-03-12T05:05:16.686Z,4.80
2019-03-12T05:07:45.947Z,2.83
2019-03-12T05:10:16.209Z,2.90
2019-03-12T05:12:45.491Z,3.63
2019-03-12T05:15:15.177Z,3.00
2019-03-12T05:17:45.089Z,4.27
2019-03-12T05:20:15.053Z,2.73
2019-03-12T05:22:44.391Z,4.83
2019-03-12T05:25:14.405Z,2.50
2019-03-12T05:27:43.680Z,3.53
2019-03-12T05:30:15.457Z,2.80
2019-03-12T05:32:44.756Z,2.97
2019-03-12T05:35:14.207Z,3.07
2019-03-12T05:37:43.657Z,3.20
2019-03-12T05:40:13.229Z,3.67
2019-03-12T05:42:42.501Z,3.90
2019-03-12T05:45:12.443Z,7.20
2019-03-12T05:47:41.789Z,4.07
2019-03-12T05:50:11.729Z,3.00
2019-03-12T05:52:41.118Z,8.07
2019-03-12T05:55:10.774Z,4.10
2019-03-12T05:57:40.435Z,3.80
2019-03-12T06:00:11.114Z,4.07
2019-03-12T06:02:40.453Z,2.87
2019-03-12T06:05:09.933Z,2.90
2019-03-12T06:07:39.235Z,2.80
2019-03-12T06:10:09.121Z,2.03
2019-03-12T06:12:38.451Z,3.17
2019-03-12T06:15:08.324Z,2.90
2019-03-12T06:17:37.632Z,2.03
2019-03-12T06:20:07.141Z,2.23
2019-03-12T06:22:36.437Z,2.93
2019-03-12T06:25:06.022Z,3.20
2019-03-12T06:27:35.407Z,2.43
2019-03-12T06:30:05.450Z,3.00
2019-03-12T06:32:41.906Z,2.50
2019-03-12T06:35:15.391Z,2.63
2019-03-12T06:38:12.845Z,2.83
2019-03-12T06:40:59.776Z,1.80
2019-03-12T06:43:46.713Z,3.33
2019-03-12T06:46:50.589Z,3.33
2019-03-12T06:49:38.904Z,2.80
2019-03-12T06:52:24.192Z,3.53
2019-03-12T06:55:18.625Z,2.03
2019-03-12T06:58:24.212Z,2.37
2019-03-12T07:01:10.052Z,2.90
2019-03-12T07:04:04.140Z,1.90
2019-03-12T07:06:51.151Z,2.10
2019-03-12T07:09:33.792Z,4.33
2019-03-12T07:12:25.277Z,2.53
2019-03-12T07:15:02.080Z,2.53
2019-03-12T07:17:38.192Z,2.27
2019-03-12T07:20:29.495Z,2.60
2019-03-12T07:23:24.064Z,2.20
2019-03-12T07:26:27.352Z,2.67
2019-03-12T07:29:15.680Z,2.20
2019-03-12T07:31:58.733Z,2.00
2019-03-12T07:34:43.315Z,2.07
2019-03-12T07:37:23.716Z,2.20
2019-03-12T07:40:14.984Z,2.27
2019-03-12T07:42:53.151Z,1.80
2019-03-12T07:45:27.861Z,2.70
2019-03-12T07:48:22.127Z,2.30
2019-03-12T07:51:09.174Z,2.70
2019-03-12T07:53:59.738Z,2.20
2019-03-12T07:56:53.183Z,2.90
2019-03-12T07:59:41.410Z,2.30
2019-03-12T08:02:42.042Z,2.80
2019-03-12T08:05:33.591Z,2.93
2019-03-12T08:08:22.536Z,2.77
2019-03-12T08:11:10.777Z,2.20
2019-03-12T08:14:08.016Z,2.50
2019-03-12T08:16:47.784Z,2.70
2019-03-12T08:19:34.757Z,3.10
2019-03-12T08:22:35.097Z,2.20
2019-03-12T08:25:12.881Z,2.60
2019-03-12T08:27:50.997Z,2.30
2019-03-12T08:30:42.050Z,3.30
2019-03-12T08:33:24.374Z,2.07
2019-03-12T08:36:18.836Z,3.00
2019-03-12T08:39:16.358Z,2.37
2019-03-12T08:42:10.415Z,2.13
2019-03-12T08:45:11.179Z,2.87
2019-03-12T08:48:13.275Z,2.10
2019-03-12T08:51:13.744Z,2.57
2019-03-12T08:54:02.552Z,3.30
2019-03-12T08:56:47.872Z,1.60
2019-03-12T08:59:48.247Z,3.13
2019-03-12T09:02:34.700Z,2.47
2019-03-12T09:05:29.024Z,3.50
2019-03-12T09:08:32.435Z,2.63
2019-03-12T09:11:26.847Z,2.37
2019-03-12T09:14:15.904Z,5.77
2019-03-12T09:16:56.902Z,2.80
2019-03-12T09:19:33.993Z,2.57
2019-03-12T09:22:09.945Z,1.90
2019-03-12T09:25:01.265Z,2.80
2019-03-12T09:27:52.601Z,2.90
2019-03-12T09:30:33.156Z,1.93
2019-03-12T09:33:27.627Z,1.93
2019-03-12T09:36:06.389Z,2.67
2019-03-12T09:38:49.800Z,3.17
2019-03-12T09:41:35.511Z,2.40
2019-03-12T09:44:26.040Z,2.37
2019-03-12T09:47:15.245Z,2.03
2019-03-12T09:50:03.561Z,2.70
2019-03-12T09:52:51.700Z,1.70
2019-03-12T09:55:39.986Z,2.20
2019-03-12T09:58:40.579Z,2.70
2019-03-12T10:01:17.148Z,2.13
2019-03-12T10:03:55.976Z,2.03
2019-03-12T10:06:44.245Z,2.80
2019-03-12T10:09:33.914Z,2.00
2019-03-12T10:12:16.436Z,1.90
2019-03-12T10:14:58.217Z,4.67
2019-03-12T10:18:05.096Z,1.93
2019-03-12T10:20:55.957Z,1.57
2019-03-12T10:23:42.697Z,2.13
2019-03-12T10:26:24.804Z,2.73
2019-03-12T10:29:14.172Z,2.03
2019-03-12T10:32:01.261Z,1.70
2019-03-12T10:34:58.365Z,2.43
2019-03-12T10:37:36.254Z,1.77
2019-03-12T10:40:19.704Z,1.60
2019-03-12T10:43:31.347Z,1.63
2019-03-12T10:46:18.235Z,1.70
2019-03-12T10:48:47.591Z,1.60
2019-03-12T10:51:16.888Z,1.60
2019-03-12T10:53:46.159Z,1.90
2019-03-12T10:56:15.410Z,2.10
2019-03-12T10:58:44.729Z,1.90
2019-03-12T11:01:14.046Z,2.20
2019-03-12T11:03:43.389Z,2.90
2019-03-12T11:06:12.823Z,2.00
2019-03-12T11:08:42.130Z,1.70
2019-03-12T11:11:11.441Z,2.17
2019-03-12T11:13:40.720Z,4.07
2019-03-12T11:16:10.024Z,1.63
2019-03-12T11:18:39.318Z,1.70
2019-03-12T11:21:08.610Z,2.40
2019-03-12T11:23:37.829Z,2.47
2019-03-12T11:26:07.168Z,2.20
2019-03-12T11:28:36.465Z,2.87
2019-03-12T11:31:05.719Z,2.53
2019-03-12T11:33:35.073Z,2.90
2019-03-12T11:36:04.550Z,2.00
2019-03-12T11:38:34.014Z,1.63
2019-03-12T11:41:03.486Z,2.00
2019-03-12T11:43:32.858Z,1.67
2019-03-12T11:46:02.187Z,2.40
2019-03-12T11:48:31.560Z,2.33
2019-03-12T11:51:00.955Z,2.73
2019-03-12T11:53:30.392Z,2.47
2019-03-12T11:55:59.702Z,2.47
2019-03-12T11:58:29.123Z,1.20
2019-03-12T12:01:01.140Z,2.23
2019-03-12T12:03:30.499Z,1.50
2019-03-12T12:05:59.878Z,1.80
2019-03-12T12:08:29.384Z,1.63
2019-03-12T12:10:58.852Z,1.57
2019-03-12T12:13:28.181Z,1.53
2019-03-12T12:15:57.477Z,1.80
2019-03-12T12:18:26.792Z,2.60
2019-03-12T12:20:56.122Z,1.50
2019-03-12T12:23:25.388Z,1.03
2019-03-12T12:25:54.691Z,1.50
2019-03-12T12:28:24.034Z,1.53
2019-03-12T12:30:53.317Z,2.07
2019-03-12T12:33:22.648Z,2.03
2019-03-12T12:35:52.011Z,1.67
2019-03-12T12:38:21.307Z,1.50
2019-03-12T12:40:50.621Z,1.00
2019-03-12T12:43:19.897Z,1.33
2019-03-12T12:45:49.376Z,1.27
2019-03-12T12:48:19.032Z,1.20
2019-03-12T12:51:01.870Z,1.20
2019-03-12T12:53:19.349Z,1.73
2019-03-12T12:55:48.955Z,1.27
2019-03-12T12:58:18.253Z,1.40
2019-03-12T13:00:47.756Z,1.70
2019-03-12T13:03:17.073Z,1.30
2019-03-12T13:05:46.337Z,1.30
2019-03-12T13:08:15.632Z,1.37
2019-03-12T13:10:44.947Z,1.97
2019-03-12T13:13:14.277Z,1.37
2019-03-12T13:15:43.585Z,2.20
2019-03-12T13:18:12.900Z,1.40
2019-03-12T13:20:42.212Z,2.10
2019-03-12T13:23:11.646Z,2.03
2019-03-12T13:25:40.916Z,1.53
2019-03-12T13:28:10.195Z,2.20
2019-03-12T13:30:40.553Z,1.90
2019-03-12T13:33:09.933Z,1.50
2019-03-12T13:35:39.210Z,1.80
2019-03-12T13:38:08.778Z,1.10
2019-03-12T13:40:38.517Z,1.20
2019-03-12T13:43:07.973Z,1.57
2019-03-12T13:45:37.356Z,1.20
2019-03-12T13:48:06.710Z,1.23
2019-03-12T13:50:36.070Z,1.23
2019-03-12T13:53:05.361Z,1.10
2019-03-12T13:55:34.956Z,1.10
2019-03-12T13:58:04.372Z,1.10
2019-03-12T14:00:33.856Z,1.43
2019-03-12T14:03:03.255Z,1.43
2019-03-12T14:05:32.605Z,2.03
2019-03-12T14:08:02.237Z,1.20
2019-03-12T14:10:31.492Z,1.07
2019-03-12T14:13:00.808Z,1.20
2019-03-12T14:15:30.585Z,1.23
2019-03-12T14:18:00.947Z,1.20
2019-03-12T14:20:51.435Z,1.17
2019-03-12T14:23:24.296Z,1.03
2019-03-12T14:25:54.370Z,1.10
2019-03-12T14:28:24.471Z,1.27
2019-03-12T14:30:54.534Z,1.40
2019-03-12T14:33:24.392Z,1.67
2019-03-12T14:35:54.228Z,1.10
2019-03-12T14:38:23.770Z,1.70
2019-03-12T14:40:53.309Z,1.20
2019-03-12T14:43:23.324Z,1.03
2019-03-12T14:45:52.855Z,1.30
2019-03-12T14:48:45.644Z,1.40
2019-03-12T14:51:30.822Z,1.73
2019-03-12T14:54:00.380Z,1.17
2019-03-12T14:56:30.652Z,1.20
2019-03-12T14:59:00.582Z,0.97
2019-03-12T15:01:29.990Z,1.23
2019-03-12T15:03:59.868Z,1.17
2019-03-12T15:06:29.425Z,1.10
2019-03-12T15:08:58.817Z,1.27
2019-03-12T15:11:28.104Z,1.30
2019-03-12T15:13:57.481Z,1.33
2019-03-12T15:16:26.765Z,1.50
2019-03-12T15:18:56.058Z,1.30
2019-03-12T15:21:25.328Z,1.93
2019-03-12T15:23:54.605Z,1.43
2019-03-12T15:26:23.873Z,1.00
2019-03-12T15:28:53.165Z,0.97
2019-03-12T15:31:22.426Z,1.53
2019-03-12T15:33:52.039Z,1.00
2019-03-12T15:36:21.268Z,1.63
2019-03-12T15:38:50.562Z,1.00
2019-03-12T15:41:19.847Z,2.50
2019-03-12T15:43:49.159Z,1.40
2019-03-12T15:46:18.427Z,1.17
2019-03-12T15:48:48.044Z,1.60
2019-03-12T15:51:17.332Z,1.20
2019-03-12T15:53:46.647Z,1.47
2019-03-12T15:56:15.926Z,1.07
2019-03-12T15:58:45.217Z,1.30
2019-03-12T16:01:14.528Z,1.40
2019-03-12T16:03:44.000Z,1.77
2019-03-12T16:06:13.311Z,1.10
2019-03-12T16:08:42.577Z,1.23
2019-03-12T16:11:11.903Z,1.20
2019-03-12T16:13:41.205Z,1.30
2019-03-12T16:16:10.511Z,1.53
2019-03-12T16:18:39.871Z,1.00
2019-03-12T16:21:09.169Z,0.97
2019-03-12T16:23:38.437Z,1.80
2019-03-12T16:26:08.239Z,1.27
2019-03-12T16:28:37.513Z,1.27
2019-03-12T16:31:06.820Z,1.07
2019-03-12T16:33:36.098Z,1.30
2019-03-12T16:36:05.600Z,1.50
2019-03-12T16:38:34.928Z,1.40
2019-03-12T16:41:04.196Z,3.87
2019-03-12T16:43:33.506Z,1.30
2019-03-12T16:46:02.814Z,1.40
2019-03-12T16:48:32.125Z,1.47
2019-03-12T16:51:01.582Z,1.97
2019-03-12T16:53:30.862Z,1.70
2019-03-12T16:56:00.157Z,1.20
2019-03-12T16:58:29.465Z,1.80
2019-03-12T17:00:58.724Z,1.50
2019-03-12T17:03:28.026Z,1.43
2019-03-12T17:05:57.596Z,1.40
2019-03-12T17:08:26.897Z,1.40
2019-03-12T17:11:02.412Z,1.50
2019-03-12T17:13:27.653Z,1.40
2019-03-12T17:15:56.936Z,2.53
2019-03-12T17:18:26.309Z,1.80
2019-03-12T17:20:55.564Z,1.33
2019-03-12T17:23:24.861Z,1.50
2019-03-12T17:25:54.196Z,2.23
2019-03-12T17:28:23.757Z,1.87
2019-03-12T17:30:53.028Z,1.60
2019-03-12T17:33:22.334Z,1.20
2019-03-12T17:35:52.955Z,1.40
2019-03-12T17:38:22.291Z,2.53
2019-03-12T17:40:51.588Z,1.67
2019-03-12T17:43:21.380Z,2.53
2019-03-12T17:45:50.668Z,1.80
2019-03-12T17:48:19.927Z,1.80
2019-03-12T17:50:49.238Z,1.80
2019-03-12T17:53:18.913Z,1.50
2019-03-12T17:55:48.304Z,1.77
2019-03-12T17:58:17.594Z,1.77
2019-03-12T18:00:47.084Z,1.93
2019-03-12T18:03:16.358Z,1.73
2019-03-12T18:05:45.696Z,1.73
2019-03-12T18:08:15.083Z,1.30
2019-03-12T18:10:44.340Z,1.50
2019-03-12T18:13:13.659Z,1.60
2019-03-12T18:15:43.253Z,2.10
2019-03-12T18:18:12.573Z,2.00
2019-03-12T18:20:44.070Z,2.00
2019-03-12T18:23:13.270Z,1.40
2019-03-12T18:25:42.615Z,1.50
2019-03-12T18:28:12.273Z,1.50
2019-03-12T18:30:42.564Z,1.70
2019-03-12T18:33:11.922Z,1.43
2019-03-12T18:35:41.199Z,1.40
2019-03-12T18:38:10.508Z,2.13
2019-03-12T18:40:39.771Z,2.33
2019-03-12T18:43:09.099Z,2.30
2019-03-12T18:45:38.482Z,1.70
2019-03-12T18:48:07.804Z,2.10
2019-03-12T18:50:37.081Z,1.30
2019-03-12T18:53:06.365Z,1.53
2019-03-12T18:55:56.228Z,1.83
2019-03-12T18:58:25.923Z,2.13
2019-03-12T19:00:55.928Z,1.50
2019-03-12T19:03:25.314Z,1.70
2019-03-12T19:05:54.565Z,2.00
2019-03-12T19:08:24.325Z,1.63
2019-03-12T19:10:53.700Z,2.60
2019-03-12T19:13:23.000Z,1.90
2019-03-12T19:15:52.265Z,2.30
2019-03-12T19:18:21.571Z,1.67
2019-03-12T19:20:51.258Z,1.50
2019-03-12T19:23:20.540Z,2.40
2019-03-12T19:25:49.863Z,1.60
2019-03-12T19:28:19.190Z,2.20
2019-03-12T19:30:49.372Z,1.23
2019-03-12T19:33:18.673Z,2.00
2019-03-12T19:35:47.976Z,1.80
2019-03-12T19:38:17.359Z,2.47
2019-03-12T19:40:47.005Z,1.97
2019-03-12T19:43:16.724Z,1.60
2019-03-12T19:45:46.023Z,2.33
2019-03-12T19:48:15.372Z,1.87
2019-03-12T19:50:44.664Z,1.60
2019-03-12T19:53:13.966Z,2.00
2019-03-12T19:55:44.397Z,2.10
2019-03-12T19:58:14.053Z,3.10
2019-03-12T20:00:44.192Z,1.97
2019-03-12T20:03:15.339Z,1.60
2019-03-12T20:05:44.721Z,2.07
2019-03-12T20:08:14.126Z,1.57
2019-03-12T20:11:13.145Z,2.40
2019-03-12T20:14:25.532Z,1.87
2019-03-12T20:17:34.966Z,2.27
2019-03-12T20:20:44.404Z,2.10
2019-03-12T20:23:56.912Z,2.60
2019-03-12T20:27:12.525Z,2.00
2019-03-12T20:30:40.511Z,3.10
2019-03-12T20:33:38.806Z,2.20
2019-03-12T20:36:53.853Z,1.93
2019-03-12T20:40:20.249Z,1.40
2019-03-12T20:43:24.281Z,1.40
2019-03-12T20:46:36.461Z,1.57
2019-03-12T20:49:57.755Z,1.10
2019-03-12T20:53:12.807Z,0.70
2019-03-12T20:56:26.037Z,1.17
2019-03-12T20:59:48.977Z,1.97
2019-03-12T21:02:55.443Z,2.53
2019-03-12T21:06:00.095Z,2.67
2019-03-12T21:09:25.294Z,3.03
2019-03-12T21:12:35.694Z,2.30
2019-03-12T21:15:43.336Z,2.97
2019-03-12T21:18:49.722Z,3.53
2019-03-12T21:22:04.270Z,3.60
2019-03-12T21:25:20.271Z,3.03
2019-03-12T21:28:15.752Z,3.10
2019-03-12T21:30:45.742Z,3.77
2019-03-12T21:33:15.822Z,4.43
2019-03-12T21:35:45.350Z,4.40
2019-03-12T21:38:14.673Z,4.13
2019-03-12T21:40:44.044Z,3.97
2019-03-12T21:43:13.349Z,4.50
2019-03-12T21:45:42.649Z,5.17
2019-03-12T21:48:12.034Z,3.40
2019-03-12T21:50:41.388Z,3.63
2019-03-12T21:53:10.664Z,4.97
2019-03-12T21:55:39.957Z,5.17
2019-03-12T21:58:09.207Z,5.50
2019-03-12T22:00:38.530Z,6.20
2019-03-12T22:03:07.827Z,6.10
2019-03-12T22:05:37.119Z,6.23
2019-03-12T22:08:06.373Z,5.60
2019-03-12T22:10:35.761Z,6.80
2019-03-12T22:13:05.386Z,7.23
2019-03-12T22:15:34.699Z,6.60
2019-03-12T22:18:04.077Z,7.07
2019-03-12T22:20:33.425Z,6.73
2019-03-12T22:23:10.397Z,7.13
2019-03-12T22:25:39.683Z,6.40
2019-03-12T22:28:08.981Z,5.80
2019-03-12T22:30:38.256Z,5.60
2019-03-12T22:33:07.739Z,5.17
2019-03-12T22:35:37.281Z,5.10
2019-03-12T22:38:06.600Z,7.70
2019-03-12T22:40:35.895Z,5.60
2019-03-12T22:43:05.256Z,4.57
2019-03-12T22:45:34.890Z,4.53
2019-03-12T22:48:04.265Z,4.47
2019-03-12T22:50:33.620Z,4.27
2019-03-12T22:53:02.940Z,3.90
2019-03-12T22:55:32.492Z,2.90
2019-03-12T22:58:02.222Z,2.87
2019-03-12T23:00:38.305Z,3.10
2019-03-12T23:03:07.900Z,2.80
2019-03-12T23:05:37.339Z,3.80
2019-03-12T23:08:07.100Z,3.33
2019-03-12T23:10:36.597Z,2.90
2019-03-12T23:13:05.974Z,3.10
2019-03-12T23:15:35.246Z,4.00
2019-03-12T23:18:04.567Z,3.17
2019-03-12T23:20:33.948Z,3.60
2019-03-12T23:23:03.642Z,3.63
2019-03-12T23:25:32.959Z,3.20
2019-03-12T23:28:02.253Z,3.10
2019-03-12T23:30:31.546Z,3.37
2019-03-12T23:33:00.847Z,3.50
2019-03-12T23:35:30.151Z,3.40
2019-03-12T23:37:59.612Z,3.73
2019-03-12T23:40:28.932Z,3.50
2019-03-12T23:42:58.231Z,2.70
2019-03-12T23:45:27.728Z,2.70
2019-03-12T23:47:57.026Z,2.50
2019-03-12T23:50:27.912Z,3.43
2019-03-12T23:52:57.195Z,3.23
2019-03-12T23:55:26.765Z,3.10
2019-03-12T23:57:56.045Z,2.70
